createdAt,value
2023-05-10T00:00:10.094Z,12.97
2023-05-10T00:02:36.897Z,12.96
2023-05-10T00:05:03.740Z,12.95
2023-05-10T00:07:30.181Z,12.96
2023-05-10T00:09:56.603Z,12.96
2023-05-10T00:12:23.141Z,12.97
2023-05-10T00:14:49.503Z,12.95
2023-05-10T00:17:16.044Z,12.94
2023-05-10T00:19:42.483Z,12.94
2023-05-10T00:22:08.909Z,12.94
2023-05-10T00:24:35.476Z,12.91
2023-05-10T00:27:01.937Z,12.93
2023-05-10T00:29:29.327Z,12.92
2023-05-10T00:31:55.825Z,12.93
2023-05-10T00:34:22.275Z,12.94
2023-05-10T00:36:48.828Z,12.95
2023-05-10T00:39:15.402Z,12.97
2023-05-10T00:41:41.789Z,12.96
2023-05-10T00:44:08.251Z,12.97
2023-05-10T00:46:35.465Z,12.96
2023-05-10T00:49:02.159Z,12.91
2023-05-10T00:51:28.836Z,12.89
2023-05-10T00:53:57.000Z,12.88
2023-05-10T00:56:25.382Z,12.86
2023-05-10T00:58:51.982Z,12.87
2023-05-10T01:01:18.505Z,12.89
2023-05-10T01:03:45.380Z,12.87
2023-05-10T01:06:12.263Z,12.85
2023-05-10T01:08:38.799Z,12.83
2023-05-10T01:11:05.318Z,12.83
2023-05-10T01:13:37.154Z,12.83
2023-05-10T01:16:04.438Z,12.77
2023-05-10T01:18:34.066Z,12.76
2023-05-10T01:21:13.216Z,12.75
2023-05-10T01:24:18.625Z,12.79
2023-05-10T01:26:51.648Z,12.85
2023-05-10T01:30:14.637Z,12.81
2023-05-10T01:32:58.784Z,12.81
2023-05-10T01:35:28.309Z,12.81
2023-05-10T01:38:16.302Z,12.83
2023-05-10T01:41:03.229Z,12.82
2023-05-10T01:43:37.994Z,12.85
2023-05-10T01:46:11.960Z,12.86
2023-05-10T01:48:48.491Z,12.86
2023-05-10T01:51:23.899Z,12.85
2023-05-10T01:53:52.655Z,12.86
2023-05-10T01:56:24.981Z,12.81
2023-05-10T01:58:52.812Z,12.85
2023-05-10T02:01:22.475Z,12.81
2023-05-10T02:03:51.897Z,12.83
2023-05-10T02:06:23.041Z,12.83
2023-05-10T02:08:51.477Z,12.82
2023-05-10T02:11:19.350Z,12.81
2023-05-10T02:13:48.358Z,12.78
2023-05-10T02:16:17.247Z,12.79
2023-05-10T02:18:44.141Z,12.81
2023-05-10T02:21:11.822Z,12.79
2023-05-10T02:23:38.959Z,12.78
2023-05-10T02:26:07.194Z,12.78
2023-05-10T02:28:36.091Z,12.79
2023-05-10T02:31:03.553Z,12.75
2023-05-10T02:33:32.517Z,12.70
2023-05-10T02:36:00.003Z,12.68
2023-05-10T02:38:27.770Z,12.68
2023-05-10T02:40:55.052Z,12.70
2023-05-10T02:43:24.110Z,12.66
2023-05-10T02:45:50.741Z,12.63
2023-05-10T02:48:17.776Z,12.60
2023-05-10T02:50:46.185Z,12.63
2023-05-10T02:53:17.422Z,12.65
2023-05-10T02:55:50.148Z,12.55
2023-05-10T02:58:16.570Z,12.48
2023-05-10T03:00:42.955Z,12.42
2023-05-10T03:03:09.410Z,12.37
2023-05-10T03:05:35.965Z,12.37
2023-05-10T03:08:05.093Z,12.30
2023-05-10T03:10:33.486Z,12.21
2023-05-10T03:13:17.537Z,12.23
2023-05-10T03:15:57.836Z,12.22
2023-05-10T03:18:30.576Z,12.20
2023-05-10T03:21:02.716Z,12.23
2023-05-10T03:23:36.744Z,12.19
2023-05-10T03:26:03.907Z,12.21
2023-05-10T03:28:31.621Z,12.16
2023-05-10T03:30:59.842Z,12.15
2023-05-10T03:33:26.367Z,12.19
2023-05-10T03:35:52.999Z,12.19
2023-05-10T03:38:19.465Z,12.18
2023-05-10T03:40:46.034Z,12.17
2023-05-10T03:43:12.372Z,12.18
2023-05-10T03:45:38.880Z,12.19
2023-05-10T03:48:06.073Z,12.25
2023-05-10T03:50:32.638Z,12.26
2023-05-10T03:52:59.115Z,12.28
2023-05-10T03:55:25.752Z,12.29
2023-05-10T03:57:52.171Z,12.25
2023-05-10T04:00:18.953Z,12.26
2023-05-10T04:02:46.334Z,12.26
2023-05-10T04:05:13.591Z,12.29
2023-05-10T04:07:40.255Z,12.32
2023-05-10T04:10:07.378Z,12.31
2023-05-10T04:12:33.823Z,12.35
2023-05-10T04:15:00.404Z,12.29
2023-05-10T04:17:26.821Z,12.30
2023-05-10T04:19:55.558Z,12.27
2023-05-10T04:22:22.008Z,12.28
2023-05-10T04:24:48.419Z,12.30
2023-05-10T04:27:15.286Z,12.29
2023-05-10T04:29:42.460Z,12.28
2023-05-10T04:32:09.009Z,12.31
2023-05-10T04:34:35.404Z,12.29
2023-05-10T04:37:01.959Z,12.30
2023-05-10T04:39:28.371Z,12.31
2023-05-10T04:41:54.784Z,12.32
2023-05-10T04:44:21.218Z,12.36
2023-05-10T04:46:47.784Z,12.33
2023-05-10T04:49:15.281Z,12.30
2023-05-10T04:51:41.718Z,12.35
2023-05-10T04:54:08.105Z,12.32
2023-05-10T04:56:34.809Z,12.33
2023-05-10T04:59:01.416Z,12.36
2023-05-10T05:01:28.048Z,12.37
2023-05-10T05:03:54.748Z,12.41
2023-05-10T05:06:25.806Z,12.44
2023-05-10T05:08:52.436Z,12.43
2023-05-10T05:11:18.988Z,12.48
2023-05-10T05:13:45.457Z,12.49
2023-05-10T05:16:12.418Z,12.50
2023-05-10T05:18:39.225Z,12.52
2023-05-10T05:21:16.070Z,12.58
2023-05-10T05:23:42.479Z,12.58
2023-05-10T05:26:09.304Z,12.59
2023-05-10T05:28:38.156Z,12.59
2023-05-10T05:31:05.674Z,12.60
2023-05-10T05:33:32.347Z,12.65
2023-05-10T05:36:01.736Z,12.64
2023-05-10T05:38:28.135Z,12.60
2023-05-10T05:40:54.487Z,12.63
2023-05-10T05:43:20.817Z,12.64
2023-05-10T05:45:47.328Z,12.66
2023-05-10T05:48:13.735Z,12.70
2023-05-10T05:50:40.114Z,12.71
2023-05-10T05:53:06.536Z,12.71
2023-05-10T05:55:33.100Z,12.70
2023-05-10T05:57:59.588Z,12.68
2023-05-10T06:00:26.781Z,12.68
2023-05-10T06:02:53.336Z,12.68
2023-05-10T06:05:21.170Z,12.68
2023-05-10T06:07:47.613Z,12.63
2023-05-10T06:10:14.186Z,12.63
2023-05-10T06:12:40.648Z,12.61
2023-05-10T06:15:07.738Z,12.61
2023-05-10T06:17:34.235Z,12.53
2023-05-10T06:20:00.675Z,12.46
2023-05-10T06:22:27.082Z,12.46
2023-05-10T06:24:53.689Z,12.48
2023-05-10T06:27:20.098Z,12.46
2023-05-10T06:29:46.526Z,12.49
2023-05-10T06:32:12.915Z,12.49
2023-05-10T06:34:39.339Z,12.54
2023-05-10T06:37:05.882Z,12.62
2023-05-10T06:39:32.265Z,12.69
2023-05-10T06:41:58.697Z,12.64
2023-05-10T06:44:25.150Z,12.66
2023-05-10T06:46:53.517Z,12.64
2023-05-10T06:49:20.055Z,12.69
2023-05-10T06:51:46.488Z,12.74
2023-05-10T06:54:12.841Z,12.73
2023-05-10T06:56:39.438Z,12.71
2023-05-10T06:59:05.970Z,12.73
2023-05-10T07:01:32.406Z,12.77
2023-05-10T07:03:58.857Z,12.83
2023-05-10T07:06:33.306Z,12.85
2023-05-10T07:09:01.324Z,12.86
2023-05-10T07:11:27.952Z,12.88
2023-05-10T07:13:54.293Z,12.91
2023-05-10T07:16:20.957Z,12.98
2023-05-10T07:18:47.362Z,12.98
2023-05-10T07:21:13.888Z,12.97
2023-05-10T07:23:41.311Z,12.95
2023-05-10T07:26:08.694Z,12.91
2023-05-10T07:28:37.638Z,12.87
2023-05-10T07:31:04.340Z,12.88
2023-05-10T07:33:30.741Z,12.94
2023-05-10T07:35:57.420Z,12.97
2023-05-10T07:38:24.351Z,13.07
2023-05-10T07:40:50.717Z,13.06
2023-05-10T07:43:17.146Z,13.12
2023-05-10T07:45:44.189Z,13.19
2023-05-10T07:48:10.892Z,13.32
2023-05-10T07:50:37.389Z,13.42
2023-05-10T07:53:03.789Z,13.45
2023-05-10T07:55:30.626Z,13.50
2023-05-10T07:57:57.749Z,13.53
2023-05-10T08:00:24.109Z,13.57
2023-05-10T08:02:50.678Z,13.53
2023-05-10T08:05:17.435Z,13.45
2023-05-10T08:07:44.047Z,13.41
2023-05-10T08:10:12.126Z,13.41
2023-05-10T08:12:39.266Z,13.40
2023-05-10T08:15:06.554Z,13.38
2023-05-10T08:17:33.502Z,13.41
2023-05-10T08:19:59.954Z,13.39
2023-05-10T08:22:27.031Z,13.39
2023-05-10T08:24:53.410Z,13.46
2023-05-10T08:27:19.856Z,13.52
2023-05-10T08:29:50.093Z,13.59
2023-05-10T08:32:16.991Z,13.64
2023-05-10T08:34:43.467Z,13.65
2023-05-10T08:37:11.452Z,13.62
2023-05-10T08:39:38.453Z,13.58
2023-05-10T08:42:05.683Z,13.66
2023-05-10T08:44:35.175Z,13.69
2023-05-10T08:47:05.609Z,13.78
2023-05-10T08:49:33.745Z,13.80
2023-05-10T08:52:04.564Z,13.77
2023-05-10T08:54:33.049Z,13.79
2023-05-10T08:56:59.599Z,13.83
2023-05-10T08:59:26.194Z,13.90
2023-05-10T09:01:54.902Z,13.97
2023-05-10T09:04:21.964Z,14.12
2023-05-10T09:06:48.888Z,14.30
2023-05-10T09:09:17.086Z,14.37
2023-05-10T09:11:44.462Z,14.41
2023-05-10T09:14:13.331Z,14.55
2023-05-10T09:16:40.761Z,14.63
2023-05-10T09:19:08.301Z,14.75
2023-05-10T09:21:39.071Z,14.91
2023-05-10T09:24:06.401Z,15.03
2023-05-10T09:26:32.846Z,15.25
2023-05-10T09:29:01.176Z,15.49
2023-05-10T09:31:47.804Z,15.61
2023-05-10T09:34:21.969Z,15.74
2023-05-10T09:36:53.031Z,15.93
2023-05-10T09:39:19.604Z,16.03
2023-05-10T09:41:45.968Z,16.15
2023-05-10T09:44:12.393Z,16.21
2023-05-10T09:46:39.018Z,16.26
2023-05-10T09:49:06.501Z,16.35
2023-05-10T09:51:35.058Z,16.32
2023-05-10T09:54:14.661Z,16.27
2023-05-10T09:56:42.056Z,16.15
2023-05-10T09:59:13.096Z,16.13
2023-05-10T10:01:40.299Z,15.99
2023-05-10T10:04:10.023Z,15.88
2023-05-10T10:06:40.856Z,15.84
2023-05-10T10:09:08.447Z,15.80
2023-05-10T10:11:37.304Z,15.84
2023-05-10T10:14:03.847Z,15.90
2023-05-10T10:16:31.440Z,15.89
2023-05-10T10:18:58.450Z,15.87
2023-05-10T10:21:26.087Z,16.06
2023-05-10T10:23:52.694Z,16.09
2023-05-10T10:26:23.757Z,15.97
2023-05-10T10:29:03.921Z,16.02
2023-05-10T10:31:48.270Z,16.06
2023-05-10T10:34:41.480Z,15.93
2023-05-10T10:37:08.097Z,15.99
2023-05-10T10:39:37.615Z,15.96
2023-05-10T10:42:05.597Z,15.98
2023-05-10T10:44:34.461Z,16.09
2023-05-10T10:47:14.140Z,16.16
2023-05-10T10:49:58.601Z,16.20
2023-05-10T10:52:39.273Z,16.20
2023-05-10T10:55:13.650Z,16.02
2023-05-10T10:57:48.510Z,15.96
2023-05-10T11:00:29.329Z,16.08
2023-05-10T11:03:03.527Z,16.25
2023-05-10T11:05:30.046Z,16.18
2023-05-10T11:07:58.486Z,16.11
2023-05-10T11:10:25.813Z,16.08
2023-05-10T11:13:02.099Z,16.12
2023-05-10T11:15:36.725Z,16.19
2023-05-10T11:18:29.595Z,16.19
2023-05-10T11:21:03.611Z,16.28
2023-05-10T11:23:49.118Z,16.39
2023-05-10T11:26:16.359Z,16.54
2023-05-10T11:28:47.191Z,16.65
2023-05-10T11:31:18.934Z,16.81
2023-05-10T11:33:45.985Z,17.03
2023-05-10T11:36:17.807Z,17.28
2023-05-10T11:38:44.620Z,17.54
2023-05-10T11:41:13.248Z,17.68
2023-05-10T11:43:41.026Z,17.80
2023-05-10T11:46:10.500Z,17.86
2023-05-10T11:48:37.699Z,17.91
2023-05-10T11:51:04.192Z,17.82
2023-05-10T11:53:32.865Z,17.71
2023-05-10T11:56:07.497Z,17.60
2023-05-10T11:58:34.824Z,17.43
2023-05-10T12:01:01.703Z,17.33
2023-05-10T12:03:29.183Z,17.27
2023-05-10T12:05:56.994Z,17.30
2023-05-10T12:08:25.887Z,17.36
2023-05-10T12:10:53.125Z,17.43
2023-05-10T12:13:21.452Z,17.59
2023-05-10T12:15:49.038Z,17.78
2023-05-10T12:18:16.079Z,17.90
2023-05-10T12:20:42.609Z,18.00
2023-05-10T12:23:10.870Z,18.05
2023-05-10T12:25:38.778Z,18.17
2023-05-10T12:28:10.018Z,18.18
2023-05-10T12:30:37.405Z,18.31
2023-05-10T12:33:16.076Z,18.45
2023-05-10T12:35:48.434Z,18.55
2023-05-10T12:38:35.509Z,18.71
2023-05-10T12:41:10.873Z,18.90
2023-05-10T12:43:38.143Z,19.06
2023-05-10T12:46:09.307Z,19.30
2023-05-10T12:48:37.255Z,19.34
2023-05-10T12:51:04.688Z,19.58
2023-05-10T12:53:31.367Z,19.52
2023-05-10T12:55:58.251Z,19.40
2023-05-10T12:58:34.933Z,19.18
2023-05-10T13:01:02.514Z,18.95
2023-05-10T13:03:28.909Z,18.81
2023-05-10T13:05:55.561Z,18.72
2023-05-10T13:08:22.004Z,18.57
2023-05-10T13:10:48.708Z,18.39
2023-05-10T13:13:16.062Z,18.05
2023-05-10T13:15:42.647Z,17.59
2023-05-10T13:18:09.283Z,17.24
2023-05-10T13:20:35.980Z,16.98
2023-05-10T13:23:03.504Z,16.69
2023-05-10T13:25:30.118Z,16.43
2023-05-10T13:27:56.459Z,16.08
2023-05-10T13:30:23.058Z,15.76
2023-05-10T13:32:49.480Z,15.35
2023-05-10T13:35:16.491Z,14.87
2023-05-10T13:37:42.944Z,14.61
2023-05-10T13:40:09.633Z,14.34
2023-05-10T13:42:36.017Z,14.26
2023-05-10T13:45:02.752Z,14.13
2023-05-10T13:47:29.182Z,14.17
2023-05-10T13:49:55.588Z,14.16
2023-05-10T13:52:22.115Z,14.03
2023-05-10T13:54:48.569Z,13.98
2023-05-10T13:57:15.045Z,13.98
2023-05-10T13:59:41.418Z,13.90
2023-05-10T14:02:07.805Z,13.82
2023-05-10T14:04:36.313Z,13.74
2023-05-10T14:07:02.864Z,13.71
2023-05-10T14:09:29.265Z,13.74
2023-05-10T14:11:56.802Z,13.71
2023-05-10T14:14:23.153Z,13.70
2023-05-10T14:16:49.692Z,13.61
2023-05-10T14:19:16.255Z,13.61
2023-05-10T14:21:42.662Z,13.64
2023-05-10T14:24:10.108Z,13.68
2023-05-10T14:26:36.618Z,13.81
2023-05-10T14:29:03.218Z,13.85
2023-05-10T14:31:31.206Z,13.86
2023-05-10T14:33:58.651Z,13.92
2023-05-10T14:36:27.327Z,13.96
2023-05-10T14:38:53.701Z,13.99
2023-05-10T14:41:20.221Z,13.98
2023-05-10T14:43:46.920Z,14.06
2023-05-10T14:46:13.686Z,14.09
2023-05-10T14:48:40.327Z,14.16
2023-05-10T14:51:07.374Z,14.14
2023-05-10T14:53:33.810Z,14.20
2023-05-10T14:56:03.880Z,14.29
2023-05-10T14:58:34.018Z,14.36
2023-05-10T15:01:00.834Z,14.39
2023-05-10T15:03:27.924Z,14.43
2023-05-10T15:05:54.870Z,14.50
2023-05-10T15:08:21.643Z,14.61
2023-05-10T15:10:48.585Z,14.75
2023-05-10T15:13:15.169Z,14.85
2023-05-10T15:15:41.649Z,14.95
2023-05-10T15:18:08.104Z,15.06
2023-05-10T15:20:34.653Z,15.17
2023-05-10T15:23:01.544Z,15.31
2023-05-10T15:25:28.668Z,15.43
2023-05-10T15:27:55.350Z,15.33
2023-05-10T15:30:22.247Z,15.43
2023-05-10T15:32:48.599Z,15.48
2023-05-10T15:35:15.412Z,15.53
2023-05-10T15:37:41.902Z,15.57
2023-05-10T15:40:08.678Z,15.62
2023-05-10T15:42:35.172Z,15.63
2023-05-10T15:45:01.625Z,15.65
2023-05-10T15:47:31.156Z,15.70
2023-05-10T15:49:57.549Z,15.76
2023-05-10T15:52:24.319Z,15.72
2023-05-10T15:54:51.236Z,15.70
2023-05-10T15:57:17.781Z,15.75
2023-05-10T15:59:44.281Z,15.68
2023-05-10T16:02:13.276Z,15.64
2023-05-10T16:04:39.697Z,15.65
2023-05-10T16:07:06.187Z,15.61
2023-05-10T16:09:32.658Z,15.59
2023-05-10T16:11:59.056Z,15.55
2023-05-10T16:14:25.460Z,15.42
2023-05-10T16:16:52.227Z,15.51
2023-05-10T16:19:18.997Z,15.53
2023-05-10T16:21:45.483Z,15.55
2023-05-10T16:24:12.116Z,15.66
2023-05-10T16:26:40.977Z,15.68
2023-05-10T16:29:10.494Z,15.58
2023-05-10T16:31:36.961Z,15.55
2023-05-10T16:34:03.445Z,15.56
2023-05-10T16:36:31.157Z,15.63
2023-05-10T16:38:57.557Z,15.72
2023-05-10T16:41:23.988Z,15.85
2023-05-10T16:43:50.458Z,15.99
2023-05-10T16:46:17.092Z,16.18
2023-05-10T16:48:43.829Z,16.37
2023-05-10T16:51:10.226Z,16.47
2023-05-10T16:53:36.614Z,17.31
2023-05-10T16:56:04.275Z,18.04
2023-05-10T16:58:30.752Z,18.72
2023-05-10T17:00:57.205Z,18.87
2023-05-10T17:03:23.704Z,19.14
2023-05-10T17:05:50.478Z,19.73
2023-05-10T17:08:17.143Z,20.09
2023-05-10T17:10:43.666Z,20.18
2023-05-10T17:13:10.859Z,20.07
2023-05-10T17:15:38.553Z,20.06
2023-05-10T17:18:05.453Z,20.28
2023-05-10T17:20:31.953Z,20.25
2023-05-10T17:22:58.488Z,20.06
2023-05-10T17:25:25.019Z,19.38
2023-05-10T17:27:51.439Z,18.80
2023-05-10T17:30:22.582Z,18.40
2023-05-10T17:32:49.264Z,18.69
2023-05-10T17:35:16.243Z,18.54
2023-05-10T17:37:44.135Z,18.78
2023-05-10T17:40:11.454Z,18.80
2023-05-10T17:42:37.915Z,18.58
2023-05-10T17:45:04.887Z,18.31
2023-05-10T17:47:31.396Z,18.11
2023-05-10T17:49:57.787Z,17.92
2023-05-10T17:52:24.166Z,17.82
2023-05-10T17:54:50.580Z,17.78
2023-05-10T17:57:17.294Z,17.52
2023-05-10T17:59:43.736Z,17.21
2023-05-10T18:02:10.306Z,17.03
2023-05-10T18:04:39.839Z,16.93
2023-05-10T18:07:06.680Z,16.83
2023-05-10T18:09:34.093Z,16.69
2023-05-10T18:12:03.981Z,16.61
2023-05-10T18:14:39.758Z,16.57
2023-05-10T18:17:08.384Z,16.53
2023-05-10T18:19:34.932Z,16.50
2023-05-10T18:22:01.321Z,16.40
2023-05-10T18:24:39.277Z,16.26
2023-05-10T18:27:08.738Z,16.13
2023-05-10T18:29:36.257Z,16.03
2023-05-10T18:32:02.854Z,15.93
2023-05-10T18:34:29.314Z,15.81
2023-05-10T18:36:56.255Z,15.77
2023-05-10T18:39:22.770Z,15.65
2023-05-10T18:41:50.141Z,15.58
2023-05-10T18:44:16.713Z,15.56
2023-05-10T18:46:43.401Z,15.52
2023-05-10T18:49:09.981Z,15.51
2023-05-10T18:51:36.548Z,15.44
2023-05-10T18:54:03.506Z,15.37
2023-05-10T18:56:30.038Z,15.31
2023-05-10T18:58:56.568Z,15.27
2023-05-10T19:01:22.998Z,15.22
2023-05-10T19:03:49.423Z,15.22
2023-05-10T19:06:15.914Z,15.18
2023-05-10T19:08:42.392Z,15.14
2023-05-10T19:11:09.070Z,15.11
2023-05-10T19:13:35.598Z,15.10
2023-05-10T19:16:15.958Z,15.05
2023-05-10T19:18:44.073Z,15.05
2023-05-10T19:21:11.452Z,15.02
2023-05-10T19:23:40.306Z,14.95
2023-05-10T19:26:07.115Z,14.90
2023-05-10T19:28:34.901Z,14.89
2023-05-10T19:31:01.717Z,14.86
2023-05-10T19:33:28.707Z,14.79
2023-05-10T19:35:55.553Z,14.73
2023-05-10T19:38:23.159Z,14.72
2023-05-10T19:40:58.139Z,14.68
2023-05-10T19:43:25.954Z,14.68
2023-05-10T19:45:52.859Z,14.65
2023-05-10T19:48:19.349Z,14.62
2023-05-10T19:50:45.892Z,14.59
2023-05-10T19:53:12.432Z,14.59
2023-05-10T19:55:39.028Z,14.58
2023-05-10T19:58:05.719Z,14.54
2023-05-10T20:00:32.248Z,14.46
2023-05-10T20:02:58.829Z,14.45
2023-05-10T20:05:25.614Z,14.45
2023-05-10T20:07:52.145Z,14.42
2023-05-10T20:10:19.055Z,14.41
2023-05-10T20:12:51.277Z,14.39
2023-05-10T20:15:20.095Z,14.36
2023-05-10T20:17:47.497Z,14.33
2023-05-10T20:20:15.837Z,14.31
2023-05-10T20:22:45.207Z,14.29
2023-05-10T20:25:12.377Z,14.22
2023-05-10T20:27:38.973Z,14.21
2023-05-10T20:30:06.250Z,14.15
2023-05-10T20:32:33.100Z,14.10
2023-05-10T20:34:59.989Z,14.10
2023-05-10T20:37:28.039Z,14.09
2023-05-10T20:39:55.000Z,14.09
2023-05-10T20:42:22.362Z,14.04
2023-05-10T20:44:49.367Z,14.03
2023-05-10T20:47:16.253Z,14.03
2023-05-10T20:49:42.977Z,14.04
2023-05-10T20:52:09.769Z,14.04
2023-05-10T20:54:36.186Z,14.04
2023-05-10T20:57:02.893Z,14.05
2023-05-10T20:59:29.400Z,14.05
2023-05-10T21:01:57.308Z,14.03
2023-05-10T21:04:24.592Z,13.97
2023-05-10T21:06:51.436Z,13.96
2023-05-10T21:09:17.926Z,13.95
2023-05-10T21:11:44.418Z,13.89
2023-05-10T21:14:10.935Z,13.93
2023-05-10T21:16:37.580Z,13.94
2023-05-10T21:19:04.128Z,13.93
2023-05-10T21:21:31.041Z,13.94
2023-05-10T21:23:57.507Z,13.93
2023-05-10T21:26:24.215Z,13.89
2023-05-10T21:28:50.658Z,13.85
2023-05-10T21:31:17.195Z,13.89
2023-05-10T21:33:43.756Z,13.90
2023-05-10T21:36:10.468Z,13.88
2023-05-10T21:38:36.986Z,13.87
2023-05-10T21:41:07.856Z,13.81
2023-05-10T21:43:34.160Z,13.77
2023-05-10T21:46:01.013Z,13.74
2023-05-10T21:48:27.543Z,13.69
2023-05-10T21:50:53.981Z,13.65
2023-05-10T21:53:20.601Z,13.58
2023-05-10T21:55:48.115Z,13.55
2023-05-10T21:58:14.618Z,13.54
2023-05-10T22:00:41.018Z,13.52
2023-05-10T22:03:07.470Z,13.52
2023-05-10T22:05:34.311Z,13.47
2023-05-10T22:08:00.980Z,13.45
2023-05-10T22:10:27.546Z,13.45
2023-05-10T22:12:53.997Z,13.47
2023-05-10T22:15:20.511Z,13.42
2023-05-10T22:17:47.001Z,13.41
2023-05-10T22:20:13.795Z,13.38
2023-05-10T22:22:40.289Z,13.31
2023-05-10T22:25:07.751Z,13.29
2023-05-10T22:27:34.560Z,13.32
2023-05-10T22:30:01.530Z,13.31
2023-05-10T22:32:28.391Z,13.32
2023-05-10T22:34:55.087Z,13.33
2023-05-10T22:37:21.527Z,13.31
2023-05-10T22:39:48.561Z,13.30
2023-05-10T22:42:15.247Z,13.31
2023-05-10T22:44:42.741Z,13.30
2023-05-10T22:47:09.411Z,13.24
2023-05-10T22:49:36.114Z,13.22
2023-05-10T22:52:02.776Z,13.22
2023-05-10T22:54:29.217Z,13.25
2023-05-10T22:56:56.501Z,13.22
2023-05-10T22:59:23.401Z,13.21
2023-05-10T23:01:50.095Z,13.21
2023-05-10T23:04:16.576Z,13.22
2023-05-10T23:06:43.174Z,13.20
2023-05-10T23:09:09.723Z,13.20
2023-05-10T23:11:36.141Z,13.18
2023-05-10T23:14:02.734Z,13.15
2023-05-10T23:16:29.546Z,13.07
2023-05-10T23:18:56.156Z,13.05
2023-05-10T23:21:22.715Z,13.05
2023-05-10T23:23:49.330Z,13.04
2023-05-10T23:26:16.256Z,13.05
2023-05-10T23:28:42.655Z,13.00
2023-05-10T23:31:09.192Z,12.98
2023-05-10T23:33:35.668Z,12.99
2023-05-10T23:36:02.195Z,13.00
2023-05-10T23:38:28.673Z,13.03
2023-05-10T23:40:55.117Z,13.05
2023-05-10T23:43:21.832Z,13.07
2023-05-10T23:45:55.221Z,13.07
2023-05-10T23:48:21.858Z,13.07
2023-05-10T23:50:48.469Z,13.06
2023-05-10T23:53:15.286Z,13.09
2023-05-10T23:55:42.287Z,13.12
2023-05-10T23:58:08.767Z,13.12
